createdAt,value
2022-08-14T00:02:01.458Z,21.40
2022-08-14T00:04:34.547Z,21.40
2022-08-14T00:07:11.586Z,21.30
2022-08-14T00:09:55.539Z,21.30
2022-08-14T00:12:34.012Z,21.30
2022-08-14T00:15:10.463Z,21.20
2022-08-14T00:17:47.520Z,21.20
2022-08-14T00:20:24.211Z,21.20
2022-08-14T00:23:14.718Z,21.20
2022-08-14T00:25:54.117Z,21.10
2022-08-14T00:28:35.400Z,21.10
2022-08-14T00:31:04.725Z,21.10
2022-08-14T00:33:50.893Z,21.10
2022-08-14T00:36:47.165Z,21.10
2022-08-14T00:39:18.278Z,21.10
2022-08-14T00:41:47.335Z,21.10
2022-08-14T00:44:21.438Z,21.00
2022-08-14T00:47:01.496Z,21.00
2022-08-14T00:49:42.682Z,20.90
2022-08-14T00:52:14.170Z,20.90
2022-08-14T00:54:52.884Z,20.90
2022-08-14T00:57:27.966Z,20.90
2022-08-14T00:59:57.368Z,20.90
2022-08-14T01:02:28.315Z,20.90
2022-08-14T01:05:00.818Z,20.90
2022-08-14T01:07:38.681Z,20.90
2022-08-14T01:10:17.853Z,20.80
2022-08-14T01:12:47.944Z,20.80
2022-08-14T01:15:16.720Z,20.70
2022-08-14T01:18:02.531Z,20.80
2022-08-14T01:20:50.502Z,20.70
2022-08-14T01:23:21.798Z,20.70
2022-08-14T01:25:51.719Z,20.70
2022-08-14T01:28:47.018Z,20.70
2022-08-14T01:31:12.506Z,20.70
2022-08-14T01:35:16.521Z,20.70
2022-08-14T01:36:37.958Z,20.70
2022-08-14T01:39:13.187Z,20.70
2022-08-14T01:41:42.293Z,20.80
2022-08-14T01:44:33.079Z,20.80
2022-08-14T01:47:12.295Z,20.80
2022-08-14T01:49:59.891Z,20.80
2022-08-14T01:52:34.080Z,20.80
2022-08-14T01:55:23.240Z,20.70
2022-08-14T01:58:01.690Z,20.70
2022-08-14T02:00:40.258Z,20.70
2022-08-14T02:03:09.546Z,20.70
2022-08-14T02:05:38.929Z,20.80
2022-08-14T02:08:10.053Z,20.70
2022-08-14T02:10:47.193Z,20.70
2022-08-14T02:13:18.994Z,20.80
2022-08-14T02:15:48.548Z,20.80
2022-08-14T02:18:18.793Z,20.80
2022-08-14T02:20:47.748Z,20.80
2022-08-14T02:23:16.581Z,20.80
2022-08-14T02:25:59.598Z,20.80
2022-08-14T02:28:58.495Z,20.80
2022-08-14T02:31:41.882Z,20.80
2022-08-14T02:34:21.820Z,20.70
2022-08-14T02:37:03.537Z,20.70
2022-08-14T02:39:37.527Z,20.70
2022-08-14T02:42:13.078Z,20.70
2022-08-14T02:44:43.278Z,20.70
2022-08-14T02:47:20.888Z,20.70
2022-08-14T02:49:50.721Z,20.70
2022-08-14T02:52:55.895Z,20.70
2022-08-14T02:55:19.967Z,20.70
2022-08-14T02:58:02.879Z,20.70
2022-08-14T03:00:35.336Z,20.70
2022-08-14T03:03:08.329Z,20.70
2022-08-14T03:05:41.072Z,20.70
2022-08-14T03:08:16.230Z,20.70
2022-08-14T03:10:49.050Z,20.70
2022-08-14T03:13:21.175Z,20.70
2022-08-14T03:15:55.489Z,20.70
2022-08-14T03:18:31.360Z,20.70
2022-08-14T03:21:02.138Z,20.70
2022-08-14T03:23:34.084Z,20.70
2022-08-14T03:26:07.159Z,20.70
2022-08-14T03:28:40.394Z,20.70
2022-08-14T03:31:13.244Z,20.70
2022-08-14T03:33:41.981Z,20.60
2022-08-14T03:37:38.258Z,20.50
2022-08-14T03:39:14.530Z,20.40
2022-08-14T03:41:50.914Z,20.40
2022-08-14T03:45:19.340Z,20.50
2022-08-14T03:47:08.733Z,20.50
2022-08-14T03:49:42.199Z,20.50
2022-08-14T03:52:27.849Z,20.40
2022-08-14T03:55:00.367Z,20.40
2022-08-14T03:57:32.885Z,20.40
2022-08-14T04:00:13.644Z,20.40
2022-08-14T04:02:59.191Z,20.30
2022-08-14T04:05:27.420Z,20.30
2022-08-14T04:08:00.358Z,20.40
2022-08-14T04:10:46.313Z,20.40
2022-08-14T04:13:18.253Z,20.40
2022-08-14T04:15:56.170Z,20.50
2022-08-14T04:18:30.562Z,20.50
2022-08-14T04:20:59.300Z,20.60
2022-08-14T04:23:29.700Z,20.60
2022-08-14T04:26:02.871Z,20.60
2022-08-14T04:29:08.308Z,20.60
2022-08-14T04:32:56.412Z,20.70
2022-08-14T04:34:20.844Z,20.70
2022-08-14T04:37:10.666Z,20.70
2022-08-14T04:39:57.488Z,20.70
2022-08-14T04:42:47.315Z,20.80
2022-08-14T04:45:21.742Z,20.80
2022-08-14T04:48:09.961Z,20.80
2022-08-14T04:50:44.489Z,20.80
2022-08-14T04:53:15.647Z,20.90
2022-08-14T04:55:47.814Z,20.90
2022-08-14T04:58:32.325Z,20.90
2022-08-14T05:01:00.813Z,20.90
2022-08-14T05:03:31.933Z,20.90
2022-08-14T05:06:01.464Z,20.90
2022-08-14T05:08:57.377Z,20.90
2022-08-14T05:11:20.896Z,20.90
2022-08-14T05:16:38.015Z,21.10
2022-08-14T05:19:24.861Z,21.20
2022-08-14T05:22:17.265Z,21.30
2022-08-14T05:24:48.703Z,21.30
2022-08-14T05:27:23.363Z,21.40
2022-08-14T05:29:53.891Z,21.50
2022-08-14T05:32:27.374Z,21.50
2022-08-14T05:34:59.207Z,21.50
2022-08-14T05:37:29.550Z,21.60
2022-08-14T05:40:00.486Z,21.60
2022-08-14T05:42:32.099Z,21.70
2022-08-14T05:45:04.720Z,21.80
2022-08-14T05:47:39.696Z,21.80
2022-08-14T05:50:18.901Z,21.90
2022-08-14T05:52:51.863Z,21.90
2022-08-14T05:55:22.219Z,21.80
2022-08-14T05:57:53.579Z,21.80
2022-08-14T06:00:28.416Z,21.90
2022-08-14T06:03:00.109Z,21.90
2022-08-14T06:05:30.249Z,22.00
2022-08-14T06:07:59.046Z,21.90
2022-08-14T06:10:28.040Z,21.90
2022-08-14T06:12:58.201Z,21.90
2022-08-14T06:15:30.329Z,21.90
2022-08-14T06:18:00.341Z,21.90
2022-08-14T06:20:30.554Z,22.00
2022-08-14T06:22:59.109Z,22.00
2022-08-14T06:25:27.955Z,22.10
2022-08-14T06:27:58.004Z,22.10
2022-08-14T06:30:45.803Z,22.10
2022-08-14T06:33:15.909Z,22.10
2022-08-14T06:35:46.681Z,22.20
2022-08-14T06:38:17.491Z,22.30
2022-08-14T06:40:46.368Z,22.30
2022-08-14T06:43:15.728Z,22.40
2022-08-14T06:45:50.147Z,22.40
2022-08-14T06:48:24.182Z,22.50
2022-08-14T06:50:55.077Z,22.50
2022-08-14T06:53:28.053Z,22.50
2022-08-14T06:56:00.517Z,22.50
2022-08-14T06:58:31.240Z,22.60
2022-08-14T07:01:24.999Z,22.60
2022-08-14T07:04:23.960Z,22.60
2022-08-14T07:06:58.419Z,22.80
2022-08-14T07:09:28.322Z,23.00
2022-08-14T07:12:52.111Z,23.10
2022-08-14T07:15:02.063Z,23.30
2022-08-14T07:17:32.165Z,23.40
2022-08-14T07:20:02.733Z,23.60
2022-08-14T07:22:32.964Z,23.70
2022-08-14T07:25:19.604Z,23.90
2022-08-14T07:27:48.425Z,24.00
2022-08-14T07:30:34.268Z,24.20
2022-08-14T07:33:04.062Z,24.30
2022-08-14T07:35:43.057Z,24.30
2022-08-14T07:38:23.343Z,24.40
2022-08-14T07:40:53.307Z,24.50
2022-08-14T07:43:22.981Z,24.60
2022-08-14T07:45:53.927Z,24.70
2022-08-14T07:48:25.170Z,24.80
2022-08-14T07:51:02.057Z,24.80
2022-08-14T07:53:36.501Z,24.90
2022-08-14T07:56:21.522Z,25.00
2022-08-14T07:58:58.574Z,25.20
2022-08-14T08:01:27.303Z,25.30
2022-08-14T08:04:00.068Z,25.40
2022-08-14T08:06:28.614Z,25.60
2022-08-14T08:09:03.018Z,25.70
2022-08-14T08:11:34.632Z,25.90
2022-08-14T08:14:10.218Z,26.00
2022-08-14T08:16:39.289Z,26.00
2022-08-14T08:19:14.019Z,26.10
2022-08-14T08:21:43.716Z,26.10
2022-08-14T08:24:19.838Z,26.10
2022-08-14T08:26:50.680Z,26.10
2022-08-14T08:29:28.618Z,26.20
2022-08-14T08:32:01.740Z,26.30
2022-08-14T08:34:43.192Z,26.40
2022-08-14T08:37:11.439Z,26.50
2022-08-14T08:40:01.662Z,26.60
2022-08-14T08:42:41.243Z,26.60
2022-08-14T08:45:17.261Z,26.70
2022-08-14T08:47:46.560Z,26.80
2022-08-14T08:50:31.112Z,26.90
2022-08-14T08:53:02.240Z,26.90
2022-08-14T08:55:34.610Z,27.00
2022-08-14T08:58:05.593Z,27.10
2022-08-14T09:00:48.756Z,27.30
2022-08-14T09:03:20.570Z,27.30
2022-08-14T09:05:54.354Z,27.50
2022-08-14T09:08:30.358Z,27.70
2022-08-14T09:11:19.604Z,27.80
2022-08-14T09:13:51.831Z,27.80
2022-08-14T09:16:26.353Z,27.90
2022-08-14T09:18:55.921Z,27.90
2022-08-14T09:21:24.862Z,27.90
2022-08-14T09:24:26.284Z,27.90
2022-08-14T09:26:49.218Z,27.90
2022-08-14T09:29:18.158Z,28.10
2022-08-14T09:31:57.076Z,28.20
2022-08-14T09:34:50.905Z,28.40
2022-08-14T09:37:35.952Z,28.50
2022-08-14T09:40:10.124Z,28.80
2022-08-14T09:42:51.264Z,29.00
2022-08-14T09:45:20.867Z,29.20
2022-08-14T09:47:52.227Z,29.40
2022-08-14T09:50:25.970Z,29.60
2022-08-14T09:52:57.706Z,29.70
2022-08-14T09:55:28.054Z,29.80
2022-08-14T09:58:20.080Z,29.90
2022-08-14T10:00:53.979Z,29.90
2022-08-14T10:03:33.854Z,30.00
2022-08-14T10:06:08.584Z,30.20
2022-08-14T10:08:51.088Z,30.30
2022-08-14T10:11:23.092Z,30.30
2022-08-14T10:13:56.062Z,30.30
2022-08-14T10:16:33.934Z,30.30
2022-08-14T10:19:07.633Z,30.30
2022-08-14T10:21:38.930Z,30.30
2022-08-14T10:24:36.978Z,30.30
2022-08-14T10:27:06.507Z,30.40
2022-08-14T10:29:40.794Z,30.50
2022-08-14T10:32:18.348Z,30.50
2022-08-14T10:35:13.766Z,30.50
2022-08-14T10:37:48.419Z,30.60
2022-08-14T10:40:37.059Z,30.70
2022-08-14T10:43:23.343Z,30.70
2022-08-14T10:46:21.816Z,30.60
2022-08-14T10:49:04.353Z,30.70
2022-08-14T10:51:36.151Z,30.70
2022-08-14T10:54:16.890Z,30.80
2022-08-14T10:56:58.302Z,30.80
2022-08-14T10:59:36.109Z,30.90
2022-08-14T11:02:35.775Z,30.90
2022-08-14T11:05:13.181Z,30.90
2022-08-14T11:07:44.670Z,30.90
2022-08-14T11:10:14.685Z,30.90
2022-08-14T11:12:48.037Z,30.90
2022-08-14T11:15:19.053Z,30.90
2022-08-14T11:17:50.346Z,30.80
2022-08-14T11:20:21.417Z,30.60
2022-08-14T11:22:57.823Z,30.70
2022-08-14T11:25:41.318Z,30.80
2022-08-14T11:28:14.666Z,30.80
2022-08-14T11:30:54.398Z,30.90
2022-08-14T11:33:31.002Z,31.00
2022-08-14T11:36:00.484Z,30.90
2022-08-14T11:38:30.454Z,30.90
2022-08-14T11:41:00.353Z,30.90
2022-08-14T11:43:30.706Z,30.90
2022-08-14T11:46:03.605Z,31.00
2022-08-14T11:49:02.387Z,31.20
2022-08-14T11:51:35.943Z,31.20
2022-08-14T11:54:06.271Z,31.00
2022-08-14T11:56:36.831Z,30.90
2022-08-14T11:59:05.068Z,31.00
2022-08-14T12:01:33.345Z,31.20
2022-08-14T12:04:32.667Z,31.40
2022-08-14T12:07:01.253Z,31.50
2022-08-14T12:09:31.564Z,31.60
2022-08-14T12:11:59.982Z,31.70
2022-08-14T12:14:35.077Z,31.90
2022-08-14T12:17:09.460Z,32.00
2022-08-14T12:19:51.081Z,32.10
2022-08-14T12:22:35.792Z,32.20
2022-08-14T12:25:10.951Z,32.20
2022-08-14T12:27:51.780Z,32.30
2022-08-14T12:30:42.541Z,32.30
2022-08-14T12:33:25.730Z,32.40
2022-08-14T12:36:04.388Z,32.40
2022-08-14T12:38:37.467Z,32.30
2022-08-14T12:41:10.656Z,32.40
2022-08-14T12:43:48.065Z,32.40
2022-08-14T12:46:27.445Z,32.60
2022-08-14T12:48:57.802Z,32.60
2022-08-14T12:51:28.942Z,32.50
2022-08-14T12:54:00.087Z,32.50
2022-08-14T12:56:34.052Z,32.40
2022-08-14T12:59:03.199Z,32.30
2022-08-14T13:02:00.213Z,32.30
2022-08-14T13:04:22.956Z,32.30
2022-08-14T13:06:52.946Z,32.20
2022-08-14T13:09:23.114Z,32.30
2022-08-14T13:11:58.899Z,32.40
2022-08-14T13:14:42.858Z,32.50
2022-08-14T13:17:11.646Z,32.60
2022-08-14T13:19:40.544Z,32.60
2022-08-14T13:22:28.906Z,32.60
2022-08-14T13:24:58.426Z,32.70
2022-08-14T13:27:27.482Z,32.80
2022-08-14T13:29:57.906Z,32.80
2022-08-14T13:32:27.614Z,32.80
2022-08-14T13:34:56.235Z,32.80
2022-08-14T13:37:26.452Z,32.90
2022-08-14T13:39:57.197Z,33.00
2022-08-14T13:42:30.518Z,33.00
2022-08-14T13:45:02.046Z,33.00
2022-08-14T13:47:33.047Z,33.00
2022-08-14T13:50:02.916Z,32.90
2022-08-14T13:52:53.465Z,32.90
2022-08-14T13:55:28.007Z,32.90
2022-08-14T13:58:04.456Z,32.80
2022-08-14T14:00:35.390Z,32.80
2022-08-14T14:03:07.348Z,32.70
2022-08-14T14:05:53.753Z,32.80
2022-08-14T14:08:46.002Z,32.80
2022-08-14T14:11:16.090Z,32.80
2022-08-14T14:13:45.950Z,32.80
2022-08-14T14:16:21.856Z,32.80
2022-08-14T14:19:06.892Z,32.60
2022-08-14T14:21:40.492Z,32.60
2022-08-14T14:24:15.138Z,32.40
2022-08-14T14:26:47.166Z,32.40
2022-08-14T14:29:16.745Z,32.50
2022-08-14T14:31:45.238Z,32.50
2022-08-14T14:34:30.086Z,32.60
2022-08-14T14:37:02.682Z,32.60
2022-08-14T14:39:38.097Z,32.70
2022-08-14T14:42:32.157Z,32.70
2022-08-14T14:45:07.624Z,32.80
2022-08-14T14:47:37.152Z,32.70
2022-08-14T14:50:11.083Z,32.60
2022-08-14T14:52:40.701Z,32.50
2022-08-14T14:55:13.496Z,32.50
2022-08-14T14:57:45.459Z,32.40
2022-08-14T15:00:21.185Z,32.40
2022-08-14T15:02:51.583Z,32.40
2022-08-14T15:05:20.186Z,32.50
2022-08-14T15:07:51.049Z,32.50
2022-08-14T15:10:26.854Z,32.50
2022-08-14T15:13:00.163Z,32.50
2022-08-14T15:15:32.532Z,32.50
2022-08-14T15:18:01.641Z,32.60
2022-08-14T15:20:31.409Z,32.50
2022-08-14T15:23:08.008Z,32.60
2022-08-14T15:25:42.513Z,32.50
2022-08-14T15:28:13.085Z,32.40
2022-08-14T15:30:51.059Z,32.40
2022-08-14T15:34:33.112Z,32.50
2022-08-14T15:36:29.857Z,32.50
2022-08-14T15:38:58.951Z,32.50
2022-08-14T15:41:41.572Z,32.50
2022-08-14T15:44:25.605Z,32.50
2022-08-14T15:46:55.152Z,32.50
2022-08-14T15:49:24.304Z,32.40
2022-08-14T15:51:52.706Z,32.40
2022-08-14T15:54:22.071Z,32.30
2022-08-14T15:56:59.518Z,32.30
2022-08-14T15:59:49.552Z,32.20
2022-08-14T16:02:16.896Z,32.20
2022-08-14T16:04:50.605Z,32.20
2022-08-14T16:07:22.167Z,32.20
2022-08-14T16:10:11.828Z,32.20
2022-08-14T16:12:47.707Z,32.10
2022-08-14T16:15:16.882Z,32.10
2022-08-14T16:17:45.821Z,32.10
2022-08-14T16:20:42.201Z,32.10
2022-08-14T16:23:05.599Z,32.10
2022-08-14T16:25:39.680Z,32.10
2022-08-14T16:28:09.585Z,32.10
2022-08-14T16:30:37.849Z,32.00
2022-08-14T16:33:07.295Z,31.90
2022-08-14T16:35:43.459Z,31.90
2022-08-14T16:38:46.320Z,31.80
2022-08-14T16:41:27.553Z,31.70
2022-08-14T16:44:01.040Z,31.70
2022-08-14T16:46:32.563Z,31.50
2022-08-14T16:49:01.676Z,31.40
2022-08-14T16:51:34.895Z,31.30
2022-08-14T16:54:20.568Z,31.30
2022-08-14T16:56:49.549Z,31.30
2022-08-14T16:59:30.556Z,31.20
2022-08-14T17:02:12.415Z,31.20
2022-08-14T17:04:41.269Z,31.00
2022-08-14T17:07:11.731Z,31.00
2022-08-14T17:09:43.845Z,30.90
2022-08-14T17:12:28.650Z,30.90
2022-08-14T17:15:10.586Z,30.90
2022-08-14T17:17:57.622Z,30.80
2022-08-14T17:20:54.671Z,30.80
2022-08-14T17:23:15.071Z,30.70
2022-08-14T17:25:50.834Z,30.60
2022-08-14T17:31:12.107Z,30.50
2022-08-14T17:33:44.777Z,30.40
2022-08-14T17:36:22.470Z,30.30
2022-08-14T17:38:59.798Z,30.30
2022-08-14T17:41:36.237Z,30.20
2022-08-14T17:44:34.330Z,30.10
2022-08-14T17:47:13.421Z,30.00
2022-08-14T17:49:47.378Z,29.90
2022-08-14T17:52:34.393Z,29.90
2022-08-14T17:55:05.236Z,29.80
2022-08-14T17:57:35.203Z,29.80
2022-08-14T18:00:12.533Z,29.70
2022-08-14T18:02:50.583Z,29.70
2022-08-14T18:05:23.803Z,29.60
2022-08-14T18:08:32.593Z,29.60
2022-08-14T18:10:56.968Z,29.50
2022-08-14T18:13:50.103Z,29.50
2022-08-14T18:16:19.763Z,29.50
2022-08-14T18:18:51.113Z,29.40
2022-08-14T18:21:39.880Z,29.40
2022-08-14T18:24:19.894Z,29.30
2022-08-14T18:27:03.075Z,29.30
2022-08-14T18:29:43.399Z,29.20
2022-08-14T18:32:47.518Z,29.10
2022-08-14T18:35:46.250Z,29.00
2022-08-14T18:38:25.886Z,28.90
2022-08-14T18:41:37.309Z,28.80
2022-08-14T18:44:10.182Z,28.60
2022-08-14T18:47:22.242Z,28.50
2022-08-14T18:50:26.057Z,28.30
2022-08-14T18:53:06.877Z,28.20
2022-08-14T18:56:00.083Z,28.10
2022-08-14T18:58:48.930Z,28.00
2022-08-14T19:01:26.455Z,27.90
2022-08-14T19:04:01.443Z,27.80
2022-08-14T19:06:55.818Z,27.70
2022-08-14T19:09:58.859Z,27.60
2022-08-14T19:13:12.132Z,27.60
2022-08-14T19:15:43.726Z,27.50
2022-08-14T19:18:26.682Z,27.40
2022-08-14T19:20:58.940Z,27.30
2022-08-14T19:23:42.413Z,27.30
2022-08-14T19:26:35.578Z,27.30
2022-08-14T19:29:26.715Z,27.30
2022-08-14T19:32:07.302Z,27.20
2022-08-14T19:34:52.245Z,27.10
2022-08-14T19:37:47.442Z,27.10
2022-08-14T19:40:29.882Z,27.10
2022-08-14T19:42:59.590Z,27.00
2022-08-14T19:45:30.064Z,26.90
2022-08-14T19:48:01.973Z,26.90
2022-08-14T19:50:40.221Z,26.80
2022-08-14T19:53:16.665Z,26.80
2022-08-14T19:55:57.464Z,26.80
2022-08-14T19:58:55.316Z,26.70
2022-08-14T20:01:37.065Z,26.60
2022-08-14T20:04:22.862Z,26.60
2022-08-14T20:06:57.154Z,26.50
2022-08-14T20:11:03.588Z,26.40
2022-08-14T20:12:28.596Z,26.30
2022-08-14T20:15:08.723Z,26.20
2022-08-14T20:17:40.503Z,26.10
2022-08-14T20:20:20.973Z,26.10
2022-08-14T20:23:11.397Z,26.00
2022-08-14T20:25:45.668Z,25.90
2022-08-14T20:28:35.718Z,25.80
2022-08-14T20:31:17.801Z,25.80
2022-08-14T20:34:06.657Z,25.70
2022-08-14T20:36:40.357Z,25.60
2022-08-14T20:39:15.261Z,25.50
2022-08-14T20:41:51.342Z,25.50
2022-08-14T20:44:40.630Z,25.40
2022-08-14T20:47:15.155Z,25.40
2022-08-14T20:49:43.460Z,25.30
2022-08-14T20:52:19.887Z,25.30
2022-08-14T20:54:51.395Z,25.30
2022-08-14T20:57:20.446Z,25.30
2022-08-14T20:59:53.587Z,25.20
2022-08-14T21:02:50.346Z,25.30
2022-08-14T21:05:22.426Z,25.30
2022-08-14T21:08:08.483Z,25.20
2022-08-14T21:10:44.410Z,25.20
2022-08-14T21:14:08.672Z,25.20
2022-08-14T21:16:04.414Z,25.10
2022-08-14T21:18:56.152Z,25.00
2022-08-14T21:21:41.559Z,24.90
2022-08-14T21:24:40.054Z,24.90
2022-08-14T21:27:00.376Z,24.90
2022-08-14T21:29:32.953Z,24.90
2022-08-14T21:32:01.142Z,24.90
2022-08-14T21:34:55.223Z,24.90
2022-08-14T21:37:23.896Z,24.80
2022-08-14T21:39:57.140Z,24.80
2022-08-14T21:42:27.794Z,24.80
2022-08-14T21:44:56.329Z,24.80
2022-08-14T21:47:24.672Z,24.70
2022-08-14T21:49:55.273Z,24.70
2022-08-14T21:52:50.979Z,24.60
2022-08-14T21:55:23.514Z,24.60
2022-08-14T21:57:56.631Z,24.60
2022-08-14T22:00:42.670Z,24.60
2022-08-14T22:03:13.634Z,24.60
2022-08-14T22:05:43.700Z,24.50
2022-08-14T22:08:14.066Z,24.50
2022-08-14T22:10:44.821Z,24.40
2022-08-14T22:13:15.879Z,24.40
2022-08-14T22:15:49.586Z,24.40
2022-08-14T22:18:21.212Z,24.30
2022-08-14T22:20:53.908Z,24.30
2022-08-14T22:23:25.083Z,24.30
2022-08-14T22:25:55.111Z,24.30
2022-08-14T22:28:25.612Z,24.20
2022-08-14T22:30:54.772Z,24.20
2022-08-14T22:33:26.687Z,24.20
2022-08-14T22:36:00.893Z,24.20
2022-08-14T22:38:37.924Z,24.10
2022-08-14T22:41:27.609Z,24.10
2022-08-14T22:43:59.168Z,24.10
2022-08-14T22:46:27.749Z,24.00
2022-08-14T22:48:57.570Z,24.00
2022-08-14T22:51:27.841Z,24.00
2022-08-14T22:53:58.169Z,23.90
2022-08-14T22:56:29.542Z,23.90
2022-08-14T22:59:00.138Z,23.80
2022-08-14T23:01:57.105Z,23.80
2022-08-14T23:04:35.372Z,23.80
2022-08-14T23:07:22.057Z,23.70
2022-08-14T23:09:56.988Z,23.70
2022-08-14T23:12:29.520Z,23.60
2022-08-14T23:14:59.329Z,23.60
2022-08-14T23:17:39.339Z,23.60
2022-08-14T23:20:18.900Z,23.60
2022-08-14T23:22:51.731Z,23.50
2022-08-14T23:25:58.531Z,23.50
2022-08-14T23:28:34.073Z,23.50
2022-08-14T23:30:58.338Z,23.40
2022-08-14T23:33:28.822Z,23.40
2022-08-14T23:35:59.348Z,23.40
2022-08-14T23:38:30.876Z,23.30
2022-08-14T23:41:00.711Z,23.30
2022-08-14T23:43:31.188Z,23.30
2022-08-14T23:45:59.682Z,23.30
2022-08-14T23:48:28.688Z,23.30
2022-08-14T23:50:59.048Z,23.30
2022-08-14T23:53:47.927Z,23.20
2022-08-14T23:56:19.810Z,23.20
2022-08-14T23:58:58.698Z,23.20
